createdAt,value
2023-05-04T00:01:48.920Z,2.30
2023-05-04T00:04:18.212Z,2.70
2023-05-04T00:06:47.588Z,2.10
2023-05-04T00:09:17.978Z,2.25
2023-05-04T00:11:47.333Z,2.50
2023-05-04T00:14:16.199Z,2.78
2023-05-04T00:16:45.217Z,2.60
2023-05-04T00:19:14.056Z,2.17
2023-05-04T00:21:42.939Z,2.78
2023-05-04T00:24:12.008Z,2.78
2023-05-04T00:26:42.293Z,2.50
2023-05-04T00:29:11.546Z,2.90
2023-05-04T00:31:40.768Z,2.67
2023-05-04T00:34:10.427Z,2.60
2023-05-04T00:36:39.813Z,2.50
2023-05-04T00:39:09.033Z,2.40
2023-05-04T00:41:38.197Z,2.70
2023-05-04T00:44:09.439Z,2.88
2023-05-04T00:46:39.217Z,2.33
2023-05-04T00:49:09.593Z,2.75
2023-05-04T00:51:39.199Z,3.05
2023-05-04T00:54:08.920Z,2.53
2023-05-04T00:56:42.250Z,2.70
2023-05-04T00:59:15.065Z,2.85
2023-05-04T01:01:44.244Z,2.60
2023-05-04T01:04:15.086Z,2.60
2023-05-04T01:06:50.397Z,2.60
2023-05-04T01:09:29.962Z,2.50
2023-05-04T01:12:07.263Z,2.70
2023-05-04T01:14:38.542Z,2.50
2023-05-04T01:17:09.598Z,2.47
2023-05-04T01:19:38.413Z,2.70
2023-05-04T01:22:08.838Z,2.70
2023-05-04T01:24:37.724Z,2.78
2023-05-04T01:27:12.651Z,2.60
2023-05-04T01:29:49.972Z,2.75
2023-05-04T01:32:21.130Z,2.30
2023-05-04T01:34:49.770Z,2.60
2023-05-04T01:37:21.634Z,2.37
2023-05-04T01:39:50.210Z,2.53
2023-05-04T01:42:18.756Z,2.53
2023-05-04T01:44:47.516Z,3.03
2023-05-04T01:47:16.151Z,2.33
2023-05-04T01:49:44.700Z,2.63
2023-05-04T01:52:13.329Z,2.67
2023-05-04T01:54:43.420Z,3.17
2023-05-04T01:57:12.364Z,2.53
2023-05-04T01:59:40.982Z,3.20
2023-05-04T02:02:10.699Z,2.50
2023-05-04T02:04:39.462Z,2.60
2023-05-04T02:07:07.937Z,2.77
2023-05-04T02:09:36.867Z,2.60
2023-05-04T02:12:07.822Z,2.83
2023-05-04T02:14:36.330Z,2.70
2023-05-04T02:17:06.350Z,2.90
2023-05-04T02:19:34.950Z,2.70
2023-05-04T02:22:03.732Z,2.67
2023-05-04T02:24:32.278Z,2.47
2023-05-04T02:27:01.858Z,3.00
2023-05-04T02:29:32.371Z,2.80
2023-05-04T02:32:03.026Z,2.77
2023-05-04T02:34:31.629Z,2.70
2023-05-04T02:37:00.134Z,2.50
2023-05-04T02:39:28.695Z,2.77
2023-05-04T02:41:57.260Z,2.83
2023-05-04T02:44:25.863Z,2.70
2023-05-04T02:46:55.728Z,2.83
2023-05-04T02:49:24.182Z,2.87
2023-05-04T02:51:52.968Z,2.50
2023-05-04T02:54:21.452Z,3.17
2023-05-04T02:56:50.397Z,2.80
2023-05-04T02:59:18.828Z,2.53
2023-05-04T03:01:47.250Z,2.50
2023-05-04T03:04:21.727Z,2.80
2023-05-04T03:06:50.376Z,2.80
2023-05-04T03:09:18.923Z,2.90
2023-05-04T03:11:47.524Z,2.50
2023-05-04T03:14:16.685Z,2.87
2023-05-04T03:16:47.541Z,2.73
2023-05-04T03:19:19.364Z,3.37
2023-05-04T03:21:50.270Z,2.73
2023-05-04T03:24:20.877Z,3.07
2023-05-04T03:26:49.684Z,2.83
2023-05-04T03:29:18.550Z,3.10
2023-05-04T03:31:47.210Z,3.47
2023-05-04T03:34:21.779Z,2.53
2023-05-04T03:36:54.868Z,2.73
2023-05-04T03:39:23.494Z,3.27
2023-05-04T03:41:52.312Z,3.13
2023-05-04T03:44:21.721Z,2.87
2023-05-04T03:46:50.447Z,2.97
2023-05-04T03:49:20.928Z,2.93
2023-05-04T03:51:49.569Z,3.17
2023-05-04T03:54:18.098Z,2.90
2023-05-04T03:56:46.788Z,3.20
2023-05-04T03:59:18.676Z,3.67
2023-05-04T04:01:47.887Z,3.10
2023-05-04T04:04:16.401Z,2.97
2023-05-04T04:06:46.640Z,2.73
2023-05-04T04:09:16.028Z,2.90
2023-05-04T04:11:44.839Z,2.67
2023-05-04T04:14:12.998Z,3.10
2023-05-04T04:16:41.239Z,3.10
2023-05-04T04:19:09.778Z,2.93
2023-05-04T04:21:38.189Z,3.07
2023-05-04T04:24:08.088Z,2.80
2023-05-04T04:26:36.642Z,2.90
2023-05-04T04:29:05.691Z,2.97
2023-05-04T04:31:59.216Z,3.20
2023-05-04T04:34:29.828Z,3.13
2023-05-04T04:36:58.846Z,2.63
2023-05-04T04:39:28.525Z,3.17
2023-05-04T04:41:56.725Z,3.37
2023-05-04T04:44:25.072Z,3.67
2023-05-04T04:46:53.447Z,3.33
2023-05-04T04:49:21.953Z,3.47
2023-05-04T04:51:50.404Z,3.27
2023-05-04T04:54:18.809Z,3.47
2023-05-04T04:56:48.328Z,3.10
2023-05-04T04:59:17.264Z,3.77
2023-05-04T05:01:54.010Z,3.30
2023-05-04T05:04:42.044Z,3.40
2023-05-04T05:07:10.421Z,3.37
2023-05-04T05:09:38.993Z,3.03
2023-05-04T05:12:09.011Z,3.30
2023-05-04T05:14:37.171Z,3.63
2023-05-04T05:17:05.758Z,3.40
2023-05-04T05:19:37.075Z,3.60
2023-05-04T05:22:05.926Z,3.40
2023-05-04T05:24:34.243Z,3.27
2023-05-04T05:27:02.530Z,3.10
2023-05-04T05:29:32.262Z,3.00
2023-05-04T05:32:00.496Z,3.73
2023-05-04T05:34:28.643Z,3.37
2023-05-04T05:36:56.824Z,3.53
2023-05-04T05:39:24.915Z,3.33
2023-05-04T05:41:58.120Z,3.50
2023-05-04T05:44:26.407Z,3.63
2023-05-04T05:46:56.749Z,4.10
2023-05-04T05:49:25.017Z,3.27
2023-05-04T05:51:53.261Z,4.27
2023-05-04T05:54:22.979Z,3.83
2023-05-04T05:56:51.331Z,3.57
2023-05-04T05:59:19.598Z,3.37
2023-05-04T06:01:48.070Z,3.13
2023-05-04T06:04:17.924Z,3.50
2023-05-04T06:06:46.817Z,3.90
2023-05-04T06:09:15.062Z,3.90
2023-05-04T06:11:43.277Z,3.70
2023-05-04T06:14:11.619Z,3.60
2023-05-04T06:16:39.886Z,3.63
2023-05-04T06:19:08.332Z,3.43
2023-05-04T06:21:38.018Z,3.20
2023-05-04T06:24:07.262Z,3.40
2023-05-04T06:26:35.555Z,3.80
2023-05-04T06:29:03.951Z,3.43
2023-05-04T06:31:32.735Z,3.47
2023-05-04T06:34:01.197Z,3.90
2023-05-04T06:36:29.514Z,3.50
2023-05-04T06:38:59.214Z,3.07
2023-05-04T06:41:27.552Z,3.67
2023-05-04T06:43:58.748Z,3.70
2023-05-04T06:46:27.697Z,3.77
2023-05-04T06:48:56.097Z,4.03
2023-05-04T06:51:24.481Z,4.10
2023-05-04T06:53:53.788Z,3.40
2023-05-04T06:56:24.653Z,4.07
2023-05-04T06:58:53.269Z,3.63
2023-05-04T07:01:21.924Z,3.60
2023-05-04T07:03:50.558Z,4.05
2023-05-04T07:06:19.601Z,3.58
2023-05-04T07:08:47.863Z,3.53
2023-05-04T07:11:16.289Z,3.63
2023-05-04T07:13:46.035Z,3.85
2023-05-04T07:16:14.625Z,4.18
2023-05-04T07:18:42.995Z,3.80
2023-05-04T07:21:26.679Z,4.38
2023-05-04T07:23:56.450Z,3.80
2023-05-04T07:26:25.198Z,3.90
2023-05-04T07:28:55.029Z,3.60
2023-05-04T07:31:23.393Z,3.83
2023-05-04T07:33:52.071Z,3.53
2023-05-04T07:36:20.606Z,4.07
2023-05-04T07:38:49.165Z,3.95
2023-05-04T07:41:17.426Z,3.72
2023-05-04T07:44:38.584Z,4.25
2023-05-04T07:47:06.800Z,4.03
2023-05-04T07:49:35.089Z,3.97
2023-05-04T07:52:04.632Z,4.00
2023-05-04T07:54:32.840Z,3.80
2023-05-04T07:57:04.211Z,4.03
2023-05-04T07:59:34.148Z,3.42
2023-05-04T08:02:02.502Z,3.67
2023-05-04T08:04:30.680Z,4.13
2023-05-04T08:06:58.952Z,4.30
2023-05-04T08:09:27.221Z,3.42
2023-05-04T08:11:55.440Z,3.22
2023-05-04T08:14:23.615Z,3.90
2023-05-04T08:16:53.295Z,3.80
2023-05-04T08:19:21.521Z,3.95
2023-05-04T08:21:49.709Z,4.40
2023-05-04T08:24:19.279Z,4.10
2023-05-04T08:26:55.939Z,4.28
2023-05-04T08:29:32.258Z,4.00
2023-05-04T08:32:01.880Z,4.28
2023-05-04T08:34:30.047Z,4.43
2023-05-04T08:36:58.560Z,3.92
2023-05-04T08:39:27.080Z,4.47
2023-05-04T08:41:55.401Z,4.25
2023-05-04T08:44:24.049Z,4.05
2023-05-04T08:46:53.829Z,4.15
2023-05-04T08:49:25.380Z,4.25
2023-05-04T08:51:53.810Z,4.55
2023-05-04T08:54:23.289Z,4.15
2023-05-04T08:56:55.021Z,4.43
2023-05-04T08:59:25.862Z,4.30
2023-05-04T09:01:59.709Z,4.82
2023-05-04T09:04:31.775Z,4.22
2023-05-04T09:06:59.999Z,4.85
2023-05-04T09:09:31.873Z,4.10
2023-05-04T09:12:00.372Z,4.75
2023-05-04T09:14:35.538Z,4.78
2023-05-04T09:17:04.740Z,4.85
2023-05-04T09:19:34.712Z,5.03
2023-05-04T09:22:04.106Z,4.72
2023-05-04T09:24:32.700Z,4.43
2023-05-04T09:27:11.416Z,4.60
2023-05-04T09:29:40.584Z,4.97
2023-05-04T09:32:15.341Z,5.15
2023-05-04T09:34:53.038Z,5.13
2023-05-04T09:37:22.539Z,4.85
2023-05-04T09:39:53.756Z,4.97
2023-05-04T09:42:23.530Z,5.15
2023-05-04T09:45:04.011Z,5.45
2023-05-04T09:47:35.214Z,5.05
2023-05-04T09:50:19.907Z,5.80
2023-05-04T09:52:50.175Z,5.00
2023-05-04T09:55:21.187Z,5.07
2023-05-04T09:57:51.310Z,5.43
2023-05-04T10:00:21.061Z,5.03
2023-05-04T10:02:50.346Z,5.10
2023-05-04T10:05:21.708Z,4.82
2023-05-04T10:07:51.027Z,5.25
2023-05-04T10:10:19.305Z,5.65
2023-05-04T10:12:47.901Z,5.35
2023-05-04T10:15:18.227Z,5.50
2023-05-04T10:18:06.825Z,5.78
2023-05-04T10:20:55.879Z,5.38
2023-05-04T10:23:52.133Z,5.22
2023-05-04T10:26:59.641Z,5.25
2023-05-04T10:29:33.171Z,5.50
2023-05-04T10:32:02.008Z,4.97
2023-05-04T10:34:32.575Z,4.97
2023-05-04T10:37:16.782Z,5.80
2023-05-04T10:39:53.480Z,5.40
2023-05-04T10:42:22.616Z,5.40
2023-05-04T10:44:53.390Z,5.43
2023-05-04T10:47:33.403Z,5.05
2023-05-04T10:50:07.200Z,5.68
2023-05-04T10:52:49.043Z,6.40
2023-05-04T10:55:19.492Z,4.95
2023-05-04T10:57:50.642Z,5.85
2023-05-04T11:00:20.323Z,5.07
2023-05-04T11:02:50.939Z,6.32
2023-05-04T11:05:20.502Z,6.03
2023-05-04T11:11:10.709Z,4.95
2023-05-04T11:13:46.915Z,6.10
2023-05-04T11:16:23.536Z,5.45
2023-05-04T11:18:52.402Z,5.88
2023-05-04T11:21:25.918Z,5.32
2023-05-04T11:23:57.930Z,5.35
2023-05-04T11:26:30.771Z,5.22
2023-05-04T11:29:22.075Z,5.00
2023-05-04T11:32:09.155Z,5.10
2023-05-04T11:34:37.896Z,4.82
2023-05-04T11:37:07.744Z,5.00
2023-05-04T11:39:37.028Z,5.45
2023-05-04T11:42:09.923Z,4.60
2023-05-04T11:44:39.570Z,5.60
2023-05-04T11:47:08.311Z,5.28
2023-05-04T11:49:37.253Z,4.60
2023-05-04T11:52:09.993Z,4.90
2023-05-04T11:54:38.533Z,4.78
2023-05-04T11:57:08.555Z,5.22
2023-05-04T11:59:37.162Z,4.78
2023-05-04T12:02:05.963Z,5.15
2023-05-04T12:04:35.471Z,4.72
2023-05-04T12:07:09.463Z,5.20
2023-05-04T12:09:47.008Z,4.60
2023-05-04T12:12:21.685Z,5.05
2023-05-04T12:14:52.505Z,4.35
2023-05-04T12:17:21.533Z,5.10
2023-05-04T12:19:51.871Z,4.43
2023-05-04T12:22:29.310Z,5.13
2023-05-04T12:24:59.667Z,4.68
2023-05-04T12:27:29.688Z,5.05
2023-05-04T12:29:58.089Z,4.93
2023-05-04T12:32:26.596Z,4.10
2023-05-04T12:34:54.998Z,5.03
2023-05-04T12:37:25.116Z,4.70
2023-05-04T12:39:53.714Z,4.88
2023-05-04T12:42:22.182Z,4.68
2023-05-04T12:44:52.613Z,4.45
2023-05-04T12:47:24.450Z,4.30
2023-05-04T12:49:53.121Z,4.50
2023-05-04T12:52:21.813Z,4.57
2023-05-04T12:54:52.039Z,4.40
2023-05-04T12:57:20.758Z,4.65
2023-05-04T12:59:49.122Z,4.18
2023-05-04T13:02:19.360Z,4.57
2023-05-04T13:04:56.370Z,4.63
2023-05-04T13:07:43.711Z,4.15
2023-05-04T13:10:12.368Z,4.75
2023-05-04T13:12:40.677Z,4.38
2023-05-04T13:15:12.002Z,4.68
2023-05-04T13:17:43.224Z,4.35
2023-05-04T13:20:13.427Z,4.05
2023-05-04T13:22:42.296Z,3.85
2023-05-04T13:25:10.808Z,3.95
2023-05-04T13:27:38.938Z,4.10
2023-05-04T13:30:09.200Z,3.63
2023-05-04T13:32:45.536Z,3.85
2023-05-04T13:35:14.481Z,4.32
2023-05-04T13:37:42.932Z,4.00
2023-05-04T13:40:13.371Z,4.47
2023-05-04T13:42:41.978Z,4.40
2023-05-04T13:45:11.931Z,3.97
2023-05-04T13:47:41.449Z,3.97
2023-05-04T13:50:12.285Z,4.28
2023-05-04T13:52:40.906Z,4.20
2023-05-04T13:55:10.668Z,4.40
2023-05-04T13:57:39.059Z,4.60
2023-05-04T14:00:09.932Z,4.35
2023-05-04T14:02:41.617Z,3.72
2023-05-04T14:05:11.935Z,4.07
2023-05-04T14:07:40.262Z,4.40
2023-05-04T14:10:09.843Z,4.85
2023-05-04T14:12:37.988Z,4.13
2023-05-04T14:15:07.792Z,4.60
2023-05-04T14:17:36.525Z,3.65
2023-05-04T14:20:05.884Z,4.05
2023-05-04T14:22:38.024Z,4.10
2023-05-04T14:25:07.345Z,3.90
2023-05-04T14:27:36.778Z,4.07
2023-05-04T14:30:09.329Z,4.43
2023-05-04T14:32:37.976Z,3.95
2023-05-04T14:35:14.626Z,4.00
2023-05-04T14:37:44.535Z,3.60
2023-05-04T14:40:33.194Z,4.88
2023-05-04T14:43:27.252Z,3.83
2023-05-04T14:46:05.828Z,4.25
2023-05-04T14:49:16.283Z,4.43
2023-05-04T14:52:02.869Z,4.00
2023-05-04T14:54:47.492Z,4.10
2023-05-04T14:57:29.758Z,3.85
2023-05-04T14:59:58.745Z,3.50
2023-05-04T15:02:27.550Z,3.67
2023-05-04T15:04:57.688Z,3.28
2023-05-04T15:07:45.368Z,3.92
2023-05-04T15:11:46.480Z,3.47
2023-05-04T15:14:16.183Z,3.03
2023-05-04T15:16:44.276Z,3.65
2023-05-04T15:19:12.446Z,3.28
2023-05-04T15:21:41.561Z,3.25
2023-05-04T15:24:09.903Z,3.30
2023-05-04T15:26:38.033Z,3.28
2023-05-04T15:29:06.737Z,3.42
2023-05-04T15:31:36.778Z,4.07
2023-05-04T15:34:04.916Z,3.40
2023-05-04T15:36:32.989Z,3.60
2023-05-04T15:39:01.071Z,3.25
2023-05-04T15:41:29.188Z,2.88
2023-05-04T15:43:57.319Z,3.55
2023-05-04T15:46:33.748Z,3.00
2023-05-04T15:49:17.357Z,2.92
2023-05-04T15:52:30.267Z,3.05
2023-05-04T15:57:25.485Z,3.65
2023-05-04T16:09:17.926Z,3.05
2023-05-04T16:13:14.033Z,3.15
2023-05-04T16:16:00.985Z,3.05
2023-05-04T16:19:15.615Z,3.30
2023-05-04T16:21:48.290Z,2.97
2023-05-04T16:24:36.135Z,3.25
2023-05-04T16:27:06.735Z,3.08
2023-05-04T16:30:00.392Z,3.22
2023-05-04T16:32:37.123Z,3.42
2023-05-04T16:35:09.219Z,2.72
2023-05-04T16:37:45.898Z,3.13
2023-05-04T16:40:16.664Z,2.80
2023-05-04T16:42:46.176Z,2.50
2023-05-04T16:45:15.703Z,3.33
2023-05-04T16:47:45.732Z,3.38
2023-05-04T16:50:15.623Z,3.65
2023-05-04T16:52:45.641Z,3.17
2023-05-04T16:55:14.558Z,2.60
2023-05-04T16:57:44.059Z,3.53
2023-05-04T17:00:14.704Z,3.05
2023-05-04T17:02:44.055Z,3.53
2023-05-04T17:05:12.794Z,3.05
2023-05-04T17:07:43.500Z,3.33
2023-05-04T17:10:15.119Z,3.33
2023-05-04T17:12:43.832Z,3.83
2023-05-04T17:15:13.442Z,3.22
2023-05-04T17:17:42.472Z,3.08
2023-05-04T17:20:15.009Z,2.83
2023-05-04T17:22:44.809Z,2.60
2023-05-04T17:25:15.331Z,2.58
2023-05-04T17:27:45.324Z,2.95
2023-05-04T17:30:15.106Z,2.63
2023-05-04T17:32:44.344Z,2.95
2023-05-04T17:35:24.146Z,2.75
2023-05-04T17:37:56.754Z,2.72
2023-05-04T17:40:29.555Z,3.15
2023-05-04T17:42:58.500Z,2.90
2023-05-04T17:45:26.989Z,2.95
2023-05-04T17:47:55.586Z,3.22
2023-05-04T17:50:25.544Z,2.85
2023-05-04T17:52:55.798Z,2.90
2023-05-04T17:55:25.510Z,2.88
2023-05-04T17:57:55.797Z,2.53
2023-05-04T18:00:24.837Z,3.05
2023-05-04T18:02:53.579Z,2.67
2023-05-04T18:05:25.839Z,2.67
2023-05-04T18:07:54.306Z,2.90
2023-05-04T18:10:22.759Z,3.10
2023-05-04T18:12:51.415Z,2.70
2023-05-04T18:15:22.172Z,3.38
2023-05-04T18:17:54.565Z,3.60
2023-05-04T18:20:23.731Z,2.58
2023-05-04T18:22:52.430Z,3.00
2023-05-04T18:25:21.370Z,3.30
2023-05-04T18:27:50.070Z,3.22
2023-05-04T18:30:20.076Z,3.25
2023-05-04T18:32:49.076Z,2.78
2023-05-04T18:35:18.167Z,3.33
2023-05-04T18:37:50.142Z,2.70
2023-05-04T18:40:19.135Z,3.03
2023-05-04T18:42:48.004Z,3.40
2023-05-04T18:45:26.887Z,3.10
2023-05-04T18:47:55.753Z,3.13
2023-05-04T18:50:24.567Z,2.85
2023-05-04T18:52:54.212Z,2.75
2023-05-04T18:55:23.274Z,2.45
2023-05-04T18:57:51.781Z,2.85
2023-05-04T19:00:22.884Z,2.53
2023-05-04T19:02:51.837Z,2.67
2023-05-04T19:05:20.355Z,2.50
2023-05-04T19:07:48.705Z,3.17
2023-05-04T19:10:17.884Z,2.72
2023-05-04T19:12:46.545Z,2.55
2023-05-04T19:15:17.405Z,2.40
2023-05-04T19:17:50.533Z,2.85
2023-05-04T19:20:19.726Z,2.65
2023-05-04T19:22:48.028Z,2.30
2023-05-04T19:25:33.206Z,2.53
2023-05-04T19:28:07.833Z,2.50
2023-05-04T19:30:37.004Z,2.60
2023-05-04T19:33:08.443Z,2.50
2023-05-04T19:35:37.946Z,2.67
2023-05-04T19:38:07.468Z,2.30
2023-05-04T19:40:36.439Z,2.90
2023-05-04T19:43:05.678Z,2.72
2023-05-04T19:45:34.084Z,2.78
2023-05-04T19:48:04.733Z,2.65
2023-05-04T19:50:34.972Z,2.83
2023-05-04T19:53:04.264Z,3.00
2023-05-04T19:55:33.272Z,3.10
2023-05-04T19:58:01.711Z,3.13
2023-05-04T20:00:30.375Z,3.00
2023-05-04T20:02:58.973Z,3.33
2023-05-04T20:05:27.709Z,2.97
2023-05-04T20:07:57.734Z,2.92
2023-05-04T20:10:26.353Z,3.33
2023-05-04T20:13:00.095Z,3.10
2023-05-04T20:15:29.791Z,3.20
2023-05-04T20:17:58.385Z,3.00
2023-05-04T20:20:26.837Z,3.47
2023-05-04T20:23:02.365Z,3.25
2023-05-04T20:25:31.823Z,3.25
2023-05-04T20:28:01.043Z,3.45
2023-05-04T20:30:29.657Z,3.63
2023-05-04T20:32:58.607Z,3.10
2023-05-04T20:35:27.144Z,2.78
2023-05-04T20:37:55.705Z,3.92
2023-05-04T20:40:25.959Z,3.67
2023-05-04T20:42:54.515Z,3.75
2023-05-04T20:45:23.220Z,3.10
2023-05-04T20:47:51.628Z,3.67
2023-05-04T20:50:20.432Z,3.58
2023-05-04T20:52:48.849Z,3.80
2023-05-04T20:55:17.808Z,3.65
2023-05-04T20:57:47.922Z,3.65
2023-05-04T21:00:18.241Z,3.88
2023-05-04T21:02:47.514Z,4.10
2023-05-04T21:05:16.174Z,3.85
2023-05-04T21:07:44.727Z,3.92
2023-05-04T21:10:13.202Z,3.67
2023-05-04T21:12:41.549Z,3.30
2023-05-04T21:15:13.072Z,3.58
2023-05-04T21:17:41.724Z,3.80
2023-05-04T21:20:11.726Z,4.10
2023-05-04T21:22:40.023Z,3.53
2023-05-04T21:25:09.362Z,3.75
2023-05-04T21:27:37.914Z,3.72
2023-05-04T21:30:08.388Z,3.38
2023-05-04T21:32:38.587Z,3.90
2023-05-04T21:35:08.224Z,4.03
2023-05-04T21:37:36.570Z,3.65
2023-05-04T21:40:05.906Z,3.25
2023-05-04T21:42:34.606Z,3.70
2023-05-04T21:45:02.945Z,4.55
2023-05-04T21:47:31.411Z,4.20
2023-05-04T21:50:02.173Z,4.50
2023-05-04T21:52:30.846Z,4.05
2023-05-04T21:54:59.362Z,3.88
2023-05-04T21:57:27.688Z,4.22
2023-05-04T21:59:55.919Z,4.80
2023-05-04T22:02:24.298Z,4.38
2023-05-04T22:04:52.608Z,4.32
2023-05-04T22:07:22.619Z,4.30
2023-05-04T22:09:51.591Z,3.80
2023-05-04T22:12:20.042Z,4.47
2023-05-04T22:14:48.450Z,4.13
2023-05-04T22:17:16.739Z,4.25
2023-05-04T22:19:45.158Z,4.43
2023-05-04T22:22:13.568Z,4.18
2023-05-04T22:24:43.269Z,4.05
2023-05-04T22:27:11.680Z,4.03
2023-05-04T22:29:40.565Z,4.45
2023-05-04T22:32:09.047Z,4.35
2023-05-04T22:34:37.555Z,4.43
2023-05-04T22:37:06.071Z,4.80
2023-05-04T22:39:34.302Z,4.82
2023-05-04T22:42:03.891Z,4.75
2023-05-04T22:44:32.241Z,4.32
2023-05-04T22:47:00.705Z,4.72
2023-05-04T22:49:28.943Z,4.43
2023-05-04T22:51:57.216Z,4.35
2023-05-04T22:54:25.825Z,4.65
2023-05-04T22:56:54.187Z,4.78
2023-05-04T22:59:23.941Z,4.50
2023-05-04T23:01:52.371Z,4.78
2023-05-04T23:04:20.811Z,5.13
2023-05-04T23:06:49.100Z,4.65
2023-05-04T23:09:17.467Z,4.88
2023-05-04T23:11:46.292Z,4.85
2023-05-04T23:14:15.763Z,4.43
2023-05-04T23:16:45.636Z,4.43
2023-05-04T23:19:13.981Z,4.15
2023-05-04T23:21:42.321Z,4.45
2023-05-04T23:24:10.536Z,4.68
2023-05-04T23:26:38.871Z,4.47
2023-05-04T23:29:07.127Z,4.43
2023-05-04T23:31:35.411Z,4.18
2023-05-04T23:34:05.125Z,4.50
2023-05-04T23:36:33.466Z,4.43
2023-05-04T23:39:01.752Z,4.43
2023-05-04T23:41:30.117Z,4.38
2023-05-04T23:43:59.943Z,4.72
2023-05-04T23:46:28.288Z,4.45
2023-05-04T23:48:56.635Z,5.00
2023-05-04T23:51:28.488Z,4.90
2023-05-04T23:53:56.849Z,4.68
2023-05-04T23:56:25.082Z,4.50
2023-05-04T23:58:53.923Z,4.40
